sensor_id;sensor_type;location;lat;lon;timestamp;temperature;humidity
33673;DHT22;20011;51.510;9.942;2024-03-25T00:01:33;8.40;99.90
33673;DHT22;20011;51.510;9.942;2024-03-25T00:04:00;8.50;99.90
33673;DHT22;20011;51.510;9.942;2024-03-25T00:06:26;8.50;99.90
33673;DHT22;20011;51.510;9.942;2024-03-25T00:08:52;8.50;99.90
33673;DHT22;20011;51.510;9.942;2024-03-25T00:11:18;8.40;99.90
33673;DHT22;20011;51.510;9.942;2024-03-25T00:13:44;8.50;99.90
33673;DHT22;20011;51.510;9.942;2024-03-25T00:16:10;8.50;99.90
33673;DHT22;20011;51.510;9.942;2024-03-25T00:18:36;8.50;99.90
33673;DHT22;20011;51.510;9.942;2024-03-25T00:21:02;8.50;99.90
33673;DHT22;20011;51.510;9.942;2024-03-25T00:23:28;8.50;99.90
33673;DHT22;20011;51.510;9.942;2024-03-25T00:25:53;8.50;99.90
33673;DHT22;20011;51.510;9.942;2024-03-25T00:28:19;8.40;99.90
33673;DHT22;20011;51.510;9.942;2024-03-25T00:30:45;8.50;99.90
33673;DHT22;20011;51.510;9.942;2024-03-25T00:33:11;8.50;99.90
33673;DHT22;20011;51.510;9.942;2024-03-25T00:35:38;8.50;99.90
33673;DHT22;20011;51.510;9.942;2024-03-25T00:38:04;8.40;99.90
33673;DHT22;20011;51.510;9.942;2024-03-25T00:40:30;8.40;99.90
33673;DHT22;20011;51.510;9.942;2024-03-25T00:42:56;8.40;99.90
33673;DHT22;20011;51.510;9.942;2024-03-25T00:45:23;8.30;99.90
33673;DHT22;20011;51.510;9.942;2024-03-25T00:47:51;8.30;99.90
33673;DHT22;20011;51.510;9.942;2024-03-25T00:50:17;8.30;99.90
33673;DHT22;20011;51.510;9.942;2024-03-25T00:52:42;8.40;99.90
33673;DHT22;20011;51.510;9.942;2024-03-25T00:55:08;8.40;99.90
33673;DHT22;20011;51.510;9.942;2024-03-25T00:57:35;8.40;99.90
33673;DHT22;20011;51.510;9.942;2024-03-25T01:00:01;8.40;99.90
33673;DHT22;20011;51.510;9.942;2024-03-25T01:02:27;8.30;99.90
33673;DHT22;20011;51.510;9.942;2024-03-25T01:04:54;8.40;99.90
33673;DHT22;20011;51.510;9.942;2024-03-25T01:07:22;8.40;99.90
33673;DHT22;20011;51.510;9.942;2024-03-25T01:09:48;8.40;99.90
33673;DHT22;20011;51.510;9.942;2024-03-25T01:12:14;8.40;99.90
33673;DHT22;20011;51.510;9.942;2024-03-25T01:14:41;8.50;99.90
33673;DHT22;20011;51.510;9.942;2024-03-25T01:17:07;8.40;99.90
33673;DHT22;20011;51.510;9.942;2024-03-25T01:19:33;8.40;99.90
33673;DHT22;20011;51.510;9.942;2024-03-25T01:21:59;8.50;99.90
33673;DHT22;20011;51.510;9.942;2024-03-25T01:24:25;8.50;99.90
33673;DHT22;20011;51.510;9.942;2024-03-25T01:26:51;8.40;99.90
33673;DHT22;20011;51.510;9.942;2024-03-25T01:29:17;8.60;99.90
33673;DHT22;20011;51.510;9.942;2024-03-25T01:31:44;8.50;99.90
33673;DHT22;20011;51.510;9.942;2024-03-25T01:34:10;8.50;99.90
33673;DHT22;20011;51.510;9.942;2024-03-25T01:36:36;8.40;99.90
33673;DHT22;20011;51.510;9.942;2024-03-25T01:39:02;8.40;99.90
33673;DHT22;20011;51.510;9.942;2024-03-25T01:41:30;8.40;99.90
33673;DHT22;20011;51.510;9.942;2024-03-25T01:43:56;8.40;99.90
33673;DHT22;20011;51.510;9.942;2024-03-25T01:46:22;8.40;99.90
33673;DHT22;20011;51.510;9.942;2024-03-25T01:48:49;8.30;99.90
33673;DHT22;20011;51.510;9.942;2024-03-25T01:51:17;8.30;99.90
33673;DHT22;20011;51.510;9.942;2024-03-25T01:53:45;8.40;99.90
33673;DHT22;20011;51.510;9.942;2024-03-25T01:56:14;8.40;99.90
33673;DHT22;20011;51.510;9.942;2024-03-25T01:58:41;8.50;99.90
33673;DHT22;20011;51.510;9.942;2024-03-25T02:01:09;8.30;99.90
33673;DHT22;20011;51.510;9.942;2024-03-25T02:03:37;8.40;99.90
33673;DHT22;20011;51.510;9.942;2024-03-25T02:06:06;8.30;99.90
33673;DHT22;20011;51.510;9.942;2024-03-25T02:08:36;8.40;99.90
33673;DHT22;20011;51.510;9.942;2024-03-25T02:11:02;8.40;99.90
33673;DHT22;20011;51.510;9.942;2024-03-25T02:13:28;8.40;99.90
33673;DHT22;20011;51.510;9.942;2024-03-25T02:15:54;8.40;99.90
33673;DHT22;20011;51.510;9.942;2024-03-25T02:18:20;8.40;99.90
33673;DHT22;20011;51.510;9.942;2024-03-25T02:20:47;8.40;99.90
33673;DHT22;20011;51.510;9.942;2024-03-25T02:23:13;8.40;99.90
33673;DHT22;20011;51.510;9.942;2024-03-25T02:25:42;8.40;99.90
33673;DHT22;20011;51.510;9.942;2024-03-25T02:28:09;8.30;99.90
33673;DHT22;20011;51.510;9.942;2024-03-25T02:30:35;8.40;99.90
33673;DHT22;20011;51.510;9.942;2024-03-25T02:33:02;8.40;99.90
33673;DHT22;20011;51.510;9.942;2024-03-25T02:35:28;8.30;99.90
33673;DHT22;20011;51.510;9.942;2024-03-25T02:37:55;8.30;99.90
33673;DHT22;20011;51.510;9.942;2024-03-25T02:40:21;8.40;99.90
33673;DHT22;20011;51.510;9.942;2024-03-25T02:42:48;8.30;99.90
33673;DHT22;20011;51.510;9.942;2024-03-25T02:45:15;8.40;99.90
33673;DHT22;20011;51.510;9.942;2024-03-25T02:47:41;8.40;99.90
33673;DHT22;20011;51.510;9.942;2024-03-25T02:50:07;8.40;99.90
33673;DHT22;20011;51.510;9.942;2024-03-25T02:52:33;8.40;99.90
33673;DHT22;20011;51.510;9.942;2024-03-25T02:54:59;8.30;99.90
33673;DHT22;20011;51.510;9.942;2024-03-25T02:57:25;8.30;99.90
33673;DHT22;20011;51.510;9.942;2024-03-25T02:59:51;8.30;99.90
33673;DHT22;20011;51.510;9.942;2024-03-25T03:02:17;8.30;99.90
33673;DHT22;20011;51.510;9.942;2024-03-25T03:04:43;8.30;99.90
33673;DHT22;20011;51.510;9.942;2024-03-25T03:07:09;8.30;99.90
33673;DHT22;20011;51.510;9.942;2024-03-25T03:09:36;8.30;99.90
33673;DHT22;20011;51.510;9.942;2024-03-25T03:12:02;8.30;99.90
33673;DHT22;20011;51.510;9.942;2024-03-25T03:14:28;8.30;99.90
33673;DHT22;20011;51.510;9.942;2024-03-25T03:16:54;8.30;99.90
33673;DHT22;20011;51.510;9.942;2024-03-25T03:19:27;8.40;99.90
33673;DHT22;20011;51.510;9.942;2024-03-25T03:21:53;8.30;99.90
33673;DHT22;20011;51.510;9.942;2024-03-25T03:24:19;8.30;99.90
33673;DHT22;20011;51.510;9.942;2024-03-25T03:26:45;8.40;99.90
33673;DHT22;20011;51.510;9.942;2024-03-25T03:29:11;8.40;99.90
33673;DHT22;20011;51.510;9.942;2024-03-25T03:31:37;8.40;99.90
33673;DHT22;20011;51.510;9.942;2024-03-25T03:34:03;8.40;99.90
33673;DHT22;20011;51.510;9.942;2024-03-25T03:36:29;8.30;99.90
33673;DHT22;20011;51.510;9.942;2024-03-25T03:38:55;8.20;99.90
33673;DHT22;20011;51.510;9.942;2024-03-25T03:41:21;8.20;99.90
33673;DHT22;20011;51.510;9.942;2024-03-25T03:43:47;8.20;99.90
33673;DHT22;20011;51.510;9.942;2024-03-25T03:46:13;8.20;99.90
33673;DHT22;20011;51.510;9.942;2024-03-25T03:48:39;8.20;99.90
33673;DHT22;20011;51.510;9.942;2024-03-25T03:51:06;8.10;99.90
33673;DHT22;20011;51.510;9.942;2024-03-25T03:53:35;8.00;99.90
33673;DHT22;20011;51.510;9.942;2024-03-25T03:56:03;8.00;99.90
33673;DHT22;20011;51.510;9.942;2024-03-25T03:58:33;7.80;99.90
33673;DHT22;20011;51.510;9.942;2024-03-25T04:00:59;7.90;99.90
33673;DHT22;20011;51.510;9.942;2024-03-25T04:03:25;7.80;99.90
33673;DHT22;20011;51.510;9.942;2024-03-25T04:05:51;7.80;99.90
33673;DHT22;20011;51.510;9.942;2024-03-25T04:08:17;7.80;99.90
33673;DHT22;20011;51.510;9.942;2024-03-25T04:10:44;7.60;99.90
33673;DHT22;20011;51.510;9.942;2024-03-25T04:13:14;7.70;99.90
33673;DHT22;20011;51.510;9.942;2024-03-25T04:15:40;7.80;99.90
33673;DHT22;20011;51.510;9.942;2024-03-25T04:18:08;7.80;99.90
33673;DHT22;20011;51.510;9.942;2024-03-25T04:20:41;7.80;99.90
33673;DHT22;20011;51.510;9.942;2024-03-25T04:23:07;7.80;99.90
33673;DHT22;20011;51.510;9.942;2024-03-25T04:25:34;7.90;99.90
33673;DHT22;20011;51.510;9.942;2024-03-25T04:28:03;7.90;99.90
33673;DHT22;20011;51.510;9.942;2024-03-25T04:30:29;7.90;99.90
33673;DHT22;20011;51.510;9.942;2024-03-25T04:32:55;7.90;99.90
33673;DHT22;20011;51.510;9.942;2024-03-25T04:35:21;7.80;99.90
33673;DHT22;20011;51.510;9.942;2024-03-25T04:37:47;7.80;99.90
33673;DHT22;20011;51.510;9.942;2024-03-25T04:40:13;7.80;99.90
33673;DHT22;20011;51.510;9.942;2024-03-25T04:42:41;7.80;99.90
33673;DHT22;20011;51.510;9.942;2024-03-25T04:45:07;7.80;99.90
33673;DHT22;20011;51.510;9.942;2024-03-25T04:47:33;7.80;99.90
33673;DHT22;20011;51.510;9.942;2024-03-25T04:49:59;7.80;99.90
33673;DHT22;20011;51.510;9.942;2024-03-25T04:52:25;7.70;99.90
33673;DHT22;20011;51.510;9.942;2024-03-25T04:54:51;7.80;99.90
33673;DHT22;20011;51.510;9.942;2024-03-25T04:57:17;7.80;99.90
33673;DHT22;20011;51.510;9.942;2024-03-25T04:59:44;7.80;99.90
33673;DHT22;20011;51.510;9.942;2024-03-25T05:02:10;7.90;99.90
33673;DHT22;20011;51.510;9.942;2024-03-25T05:04:36;7.90;99.90
33673;DHT22;20011;51.510;9.942;2024-03-25T05:07:02;7.90;99.90
33673;DHT22;20011;51.510;9.942;2024-03-25T05:09:28;7.90;99.90
33673;DHT22;20011;51.510;9.942;2024-03-25T05:11:54;7.90;99.90
33673;DHT22;20011;51.510;9.942;2024-03-25T05:14:20;7.80;99.90
33673;DHT22;20011;51.510;9.942;2024-03-25T05:16:46;7.90;99.90
33673;DHT22;20011;51.510;9.942;2024-03-25T05:19:12;7.90;99.90
33673;DHT22;20011;51.510;9.942;2024-03-25T05:21:39;8.00;99.90
33673;DHT22;20011;51.510;9.942;2024-03-25T05:24:05;7.90;99.90
33673;DHT22;20011;51.510;9.942;2024-03-25T05:26:31;7.90;99.90
33673;DHT22;20011;51.510;9.942;2024-03-25T05:28:57;7.80;99.90
33673;DHT22;20011;51.510;9.942;2024-03-25T05:31:24;7.70;99.90
33673;DHT22;20011;51.510;9.942;2024-03-25T05:33:50;7.80;99.90
33673;DHT22;20011;51.510;9.942;2024-03-25T05:36:16;7.70;99.90
33673;DHT22;20011;51.510;9.942;2024-03-25T05:38:42;7.70;99.90
33673;DHT22;20011;51.510;9.942;2024-03-25T05:41:09;7.60;99.90
33673;DHT22;20011;51.510;9.942;2024-03-25T05:43:35;7.60;99.90
33673;DHT22;20011;51.510;9.942;2024-03-25T05:46:01;7.50;99.90
33673;DHT22;20011;51.510;9.942;2024-03-25T05:48:28;7.50;99.90
33673;DHT22;20011;51.510;9.942;2024-03-25T05:51:05;7.50;99.90
33673;DHT22;20011;51.510;9.942;2024-03-25T05:53:31;7.50;99.90
33673;DHT22;20011;51.510;9.942;2024-03-25T05:55:58;7.50;99.90
33673;DHT22;20011;51.510;9.942;2024-03-25T05:58:27;7.50;99.90
33673;DHT22;20011;51.510;9.942;2024-03-25T06:00:54;7.40;99.90
33673;DHT22;20011;51.510;9.942;2024-03-25T06:03:20;7.40;99.90
33673;DHT22;20011;51.510;9.942;2024-03-25T06:05:46;7.40;99.90
33673;DHT22;20011;51.510;9.942;2024-03-25T06:08:12;7.40;99.90
33673;DHT22;20011;51.510;9.942;2024-03-25T06:10:46;7.40;99.90
33673;DHT22;20011;51.510;9.942;2024-03-25T06:13:12;7.40;99.90
33673;DHT22;20011;51.510;9.942;2024-03-25T06:15:38;7.40;99.90
33673;DHT22;20011;51.510;9.942;2024-03-25T06:18:04;7.40;99.90
33673;DHT22;20011;51.510;9.942;2024-03-25T06:20:30;7.40;99.90
33673;DHT22;20011;51.510;9.942;2024-03-25T06:22:56;7.40;99.90
33673;DHT22;20011;51.510;9.942;2024-03-25T06:25:22;7.40;99.90
33673;DHT22;20011;51.510;9.942;2024-03-25T06:27:48;7.30;99.90
33673;DHT22;20011;51.510;9.942;2024-03-25T06:30:14;7.40;99.90
33673;DHT22;20011;51.510;9.942;2024-03-25T06:32:58;7.40;99.90
33673;DHT22;20011;51.510;9.942;2024-03-25T06:35:43;7.40;99.90
33673;DHT22;20011;51.510;9.942;2024-03-25T06:38:13;7.40;99.90
33673;DHT22;20011;51.510;9.942;2024-03-25T06:40:39;7.50;99.90
33673;DHT22;20011;51.510;9.942;2024-03-25T06:43:05;7.40;99.90
33673;DHT22;20011;51.510;9.942;2024-03-25T06:45:31;7.40;99.90
33673;DHT22;20011;51.510;9.942;2024-03-25T06:47:58;7.40;99.90
33673;DHT22;20011;51.510;9.942;2024-03-25T06:50:24;7.40;99.90
33673;DHT22;20011;51.510;9.942;2024-03-25T06:52:50;7.40;99.90
33673;DHT22;20011;51.510;9.942;2024-03-25T06:55:16;7.40;99.90
33673;DHT22;20011;51.510;9.942;2024-03-25T06:57:43;7.40;99.90
33673;DHT22;20011;51.510;9.942;2024-03-25T07:00:09;7.40;99.90
33673;DHT22;20011;51.510;9.942;2024-03-25T07:02:39;7.50;99.90
33673;DHT22;20011;51.510;9.942;2024-03-25T07:05:06;7.50;99.90
33673;DHT22;20011;51.510;9.942;2024-03-25T07:07:32;7.50;99.90
33673;DHT22;20011;51.510;9.942;2024-03-25T07:10:00;7.50;99.90
33673;DHT22;20011;51.510;9.942;2024-03-25T07:12:26;7.50;99.90
33673;DHT22;20011;51.510;9.942;2024-03-25T07:14:52;7.50;99.90
33673;DHT22;20011;51.510;9.942;2024-03-25T07:17:18;7.60;99.90
33673;DHT22;20011;51.510;9.942;2024-03-25T07:19:44;7.50;99.90
33673;DHT22;20011;51.510;9.942;2024-03-25T07:22:11;7.60;99.90
33673;DHT22;20011;51.510;9.942;2024-03-25T07:24:36;7.60;99.90
33673;DHT22;20011;51.510;9.942;2024-03-25T07:27:02;7.70;99.90
33673;DHT22;20011;51.510;9.942;2024-03-25T07:29:28;7.70;99.90
33673;DHT22;20011;51.510;9.942;2024-03-25T07:31:54;7.70;99.90
33673;DHT22;20011;51.510;9.942;2024-03-25T07:34:20;7.70;99.90
33673;DHT22;20011;51.510;9.942;2024-03-25T07:36:46;7.70;99.90
33673;DHT22;20011;51.510;9.942;2024-03-25T07:39:14;7.80;99.90
33673;DHT22;20011;51.510;9.942;2024-03-25T07:41:40;7.80;99.90
33673;DHT22;20011;51.510;9.942;2024-03-25T07:44:06;7.80;99.90
33673;DHT22;20011;51.510;9.942;2024-03-25T07:46:32;7.80;99.90
33673;DHT22;20011;51.510;9.942;2024-03-25T07:48:58;7.80;99.90
33673;DHT22;20011;51.510;9.942;2024-03-25T07:51:24;7.90;99.90
33673;DHT22;20011;51.510;9.942;2024-03-25T07:53:50;7.90;99.90
33673;DHT22;20011;51.510;9.942;2024-03-25T07:56:16;7.90;99.90
33673;DHT22;20011;51.510;9.942;2024-03-25T07:58:42;7.90;99.90
33673;DHT22;20011;51.510;9.942;2024-03-25T08:01:08;8.00;99.90
33673;DHT22;20011;51.510;9.942;2024-03-25T08:03:34;8.10;99.90
33673;DHT22;20011;51.510;9.942;2024-03-25T08:06:00;8.10;99.90
33673;DHT22;20011;51.510;9.942;2024-03-25T08:08:26;8.10;99.90
33673;DHT22;20011;51.510;9.942;2024-03-25T08:10:53;8.10;99.90
33673;DHT22;20011;51.510;9.942;2024-03-25T08:13:19;8.20;99.90
33673;DHT22;20011;51.510;9.942;2024-03-25T08:15:48;8.20;99.90
33673;DHT22;20011;51.510;9.942;2024-03-25T08:18:14;8.20;99.90
33673;DHT22;20011;51.510;9.942;2024-03-25T08:20:40;8.20;99.90
33673;DHT22;20011;51.510;9.942;2024-03-25T08:23:06;8.10;99.90
33673;DHT22;20011;51.510;9.942;2024-03-25T08:25:33;8.20;99.90
33673;DHT22;20011;51.510;9.942;2024-03-25T08:27:59;8.30;99.90
33673;DHT22;20011;51.510;9.942;2024-03-25T08:30:25;8.30;99.90
33673;DHT22;20011;51.510;9.942;2024-03-25T08:32:51;8.40;99.90
33673;DHT22;20011;51.510;9.942;2024-03-25T08:35:17;8.40;99.90
33673;DHT22;20011;51.510;9.942;2024-03-25T08:37:43;8.50;99.90
33673;DHT22;20011;51.510;9.942;2024-03-25T08:40:09;8.50;99.90
33673;DHT22;20011;51.510;9.942;2024-03-25T08:42:35;8.50;99.90
33673;DHT22;20011;51.510;9.942;2024-03-25T08:45:02;8.60;99.90
33673;DHT22;20011;51.510;9.942;2024-03-25T08:47:28;8.50;99.90
33673;DHT22;20011;51.510;9.942;2024-03-25T08:49:54;8.60;99.90
33673;DHT22;20011;51.510;9.942;2024-03-25T08:52:20;8.60;99.90
33673;DHT22;20011;51.510;9.942;2024-03-25T08:54:46;8.70;99.90
33673;DHT22;20011;51.510;9.942;2024-03-25T08:57:12;8.70;99.90
33673;DHT22;20011;51.510;9.942;2024-03-25T08:59:37;8.70;99.90
33673;DHT22;20011;51.510;9.942;2024-03-25T09:02:03;8.80;99.90
33673;DHT22;20011;51.510;9.942;2024-03-25T09:04:29;8.80;99.90
33673;DHT22;20011;51.510;9.942;2024-03-25T09:06:56;8.90;99.90
33673;DHT22;20011;51.510;9.942;2024-03-25T09:09:22;8.90;99.90
33673;DHT22;20011;51.510;9.942;2024-03-25T09:12:06;8.80;99.90
33673;DHT22;20011;51.510;9.942;2024-03-25T09:14:32;8.90;99.90
33673;DHT22;20011;51.510;9.942;2024-03-25T09:16:59;8.90;99.90
33673;DHT22;20011;51.510;9.942;2024-03-25T09:19:25;8.90;99.90
33673;DHT22;20011;51.510;9.942;2024-03-25T09:21:51;8.90;99.90
33673;DHT22;20011;51.510;9.942;2024-03-25T09:24:17;8.90;99.90
33673;DHT22;20011;51.510;9.942;2024-03-25T09:26:45;8.90;99.90
33673;DHT22;20011;51.510;9.942;2024-03-25T09:29:12;8.90;99.90
33673;DHT22;20011;51.510;9.942;2024-03-25T09:31:38;8.90;99.90
33673;DHT22;20011;51.510;9.942;2024-03-25T09:34:05;9.00;99.90
33673;DHT22;20011;51.510;9.942;2024-03-25T09:36:31;9.00;99.90
33673;DHT22;20011;51.510;9.942;2024-03-25T09:38:57;9.00;99.90
33673;DHT22;20011;51.510;9.942;2024-03-25T09:41:23;9.00;99.90
33673;DHT22;20011;51.510;9.942;2024-03-25T09:43:54;9.00;99.90
33673;DHT22;20011;51.510;9.942;2024-03-25T09:46:21;9.00;99.90
33673;DHT22;20011;51.510;9.942;2024-03-25T09:48:48;9.10;99.90
33673;DHT22;20011;51.510;9.942;2024-03-25T09:51:16;9.20;99.90
33673;DHT22;20011;51.510;9.942;2024-03-25T09:53:42;9.10;99.90
33673;DHT22;20011;51.510;9.942;2024-03-25T09:56:09;9.00;99.90
33673;DHT22;20011;51.510;9.942;2024-03-25T09:58:36;9.10;99.90
33673;DHT22;20011;51.510;9.942;2024-03-25T10:01:02;9.10;99.90
33673;DHT22;20011;51.510;9.942;2024-03-25T10:03:28;9.10;99.90
33673;DHT22;20011;51.510;9.942;2024-03-25T10:05:54;9.20;99.90
33673;DHT22;20011;51.510;9.942;2024-03-25T10:08:23;9.20;99.90
33673;DHT22;20011;51.510;9.942;2024-03-25T10:10:52;9.20;99.90
33673;DHT22;20011;51.510;9.942;2024-03-25T10:13:24;9.30;99.90
33673;DHT22;20011;51.510;9.942;2024-03-25T10:15:50;9.20;99.90
33673;DHT22;20011;51.510;9.942;2024-03-25T10:18:17;9.20;99.90
33673;DHT22;20011;51.510;9.942;2024-03-25T10:20:52;9.30;99.90
33673;DHT22;20011;51.510;9.942;2024-03-25T10:23:23;9.20;99.90
33673;DHT22;20011;51.510;9.942;2024-03-25T10:25:53;9.20;99.90
33673;DHT22;20011;51.510;9.942;2024-03-25T10:28:19;9.20;99.90
33673;DHT22;20011;51.510;9.942;2024-03-25T10:30:45;9.20;99.90
33673;DHT22;20011;51.510;9.942;2024-03-25T10:33:11;9.30;99.90
33673;DHT22;20011;51.510;9.942;2024-03-25T10:35:39;9.30;99.90
33673;DHT22;20011;51.510;9.942;2024-03-25T10:38:07;9.40;99.90
33673;DHT22;20011;51.510;9.942;2024-03-25T10:40:40;9.40;99.90
33673;DHT22;20011;51.510;9.942;2024-03-25T10:43:07;9.50;99.90
33673;DHT22;20011;51.510;9.942;2024-03-25T10:45:47;9.50;99.90
33673;DHT22;20011;51.510;9.942;2024-03-25T10:50:51;9.50;99.90
33673;DHT22;20011;51.510;9.942;2024-03-25T10:53:19;9.50;99.90
33673;DHT22;20011;51.510;9.942;2024-03-25T10:55:47;9.50;99.90
33673;DHT22;20011;51.510;9.942;2024-03-25T10:58:17;9.60;99.90
33673;DHT22;20011;51.510;9.942;2024-03-25T11:00:43;9.60;99.90
33673;DHT22;20011;51.510;9.942;2024-03-25T11:03:10;9.70;99.90
33673;DHT22;20011;51.510;9.942;2024-03-25T11:05:37;9.70;99.90
33673;DHT22;20011;51.510;9.942;2024-03-25T11:08:14;9.80;99.90
33673;DHT22;20011;51.510;9.942;2024-03-25T11:10:41;9.80;99.90
33673;DHT22;20011;51.510;9.942;2024-03-25T11:13:14;9.80;99.90
33673;DHT22;20011;51.510;9.942;2024-03-25T11:15:41;9.80;99.90
33673;DHT22;20011;51.510;9.942;2024-03-25T11:18:16;9.90;99.90
33673;DHT22;20011;51.510;9.942;2024-03-25T11:20:43;9.90;99.90
33673;DHT22;20011;51.510;9.942;2024-03-25T11:23:13;10.00;99.90
33673;DHT22;20011;51.510;9.942;2024-03-25T11:25:41;10.00;99.90
33673;DHT22;20011;51.510;9.942;2024-03-25T11:28:08;10.00;99.90
33673;DHT22;20011;51.510;9.942;2024-03-25T11:30:36;10.10;99.90
33673;DHT22;20011;51.510;9.942;2024-03-25T11:33:03;10.10;99.90
33673;DHT22;20011;51.510;9.942;2024-03-25T11:35:38;10.20;99.90
33673;DHT22;20011;51.510;9.942;2024-03-25T11:38:04;10.20;99.90
33673;DHT22;20011;51.510;9.942;2024-03-25T11:40:30;10.20;99.90
33673;DHT22;20011;51.510;9.942;2024-03-25T11:42:56;10.20;99.90
33673;DHT22;20011;51.510;9.942;2024-03-25T11:45:23;10.20;99.90
33673;DHT22;20011;51.510;9.942;2024-03-25T11:47:50;10.30;99.90
33673;DHT22;20011;51.510;9.942;2024-03-25T11:50:18;10.30;99.90
33673;DHT22;20011;51.510;9.942;2024-03-25T11:52:44;10.30;99.90
33673;DHT22;20011;51.510;9.942;2024-03-25T11:55:10;10.40;99.90
33673;DHT22;20011;51.510;9.942;2024-03-25T11:57:40;10.40;99.90
33673;DHT22;20011;51.510;9.942;2024-03-25T12:00:08;10.40;99.90
33673;DHT22;20011;51.510;9.942;2024-03-25T12:02:43;10.30;99.90
33673;DHT22;20011;51.510;9.942;2024-03-25T12:05:11;10.40;99.90
33673;DHT22;20011;51.510;9.942;2024-03-25T12:07:37;10.40;99.90
33673;DHT22;20011;51.510;9.942;2024-03-25T12:10:03;10.40;99.90
33673;DHT22;20011;51.510;9.942;2024-03-25T12:12:48;10.40;99.90
33673;DHT22;20011;51.510;9.942;2024-03-25T12:15:20;10.40;99.90
33673;DHT22;20011;51.510;9.942;2024-03-25T12:17:46;10.30;99.90
33673;DHT22;20011;51.510;9.942;2024-03-25T12:20:12;10.40;99.90
33673;DHT22;20011;51.510;9.942;2024-03-25T12:22:41;10.40;99.90
33673;DHT22;20011;51.510;9.942;2024-03-25T12:25:08;10.30;99.90
33673;DHT22;20011;51.510;9.942;2024-03-25T12:27:38;10.40;99.90
33673;DHT22;20011;51.510;9.942;2024-03-25T12:30:08;10.40;99.90
33673;DHT22;20011;51.510;9.942;2024-03-25T12:32:43;10.40;99.90
33673;DHT22;20011;51.510;9.942;2024-03-25T12:35:17;10.40;99.90
33673;DHT22;20011;51.510;9.942;2024-03-25T12:37:47;10.40;99.90
33673;DHT22;20011;51.510;9.942;2024-03-25T12:40:27;10.40;99.90
33673;DHT22;20011;51.510;9.942;2024-03-25T12:42:53;10.40;99.90
33673;DHT22;20011;51.510;9.942;2024-03-25T12:45:21;10.50;99.90
33673;DHT22;20011;51.510;9.942;2024-03-25T12:47:47;10.50;99.90
33673;DHT22;20011;51.510;9.942;2024-03-25T12:50:13;10.50;99.40
33673;DHT22;20011;51.510;9.942;2024-03-25T12:52:39;10.50;98.80
33673;DHT22;20011;51.510;9.942;2024-03-25T12:55:05;10.50;99.80
33673;DHT22;20011;51.510;9.942;2024-03-25T12:57:31;10.60;99.90
33673;DHT22;20011;51.510;9.942;2024-03-25T12:59:57;10.60;99.30
33673;DHT22;20011;51.510;9.942;2024-03-25T13:02:23;10.60;99.40
33673;DHT22;20011;51.510;9.942;2024-03-25T13:04:49;10.60;98.80
33673;DHT22;20011;51.510;9.942;2024-03-25T13:07:15;10.60;97.70
33673;DHT22;20011;51.510;9.942;2024-03-25T13:09:40;10.70;98.50
33673;DHT22;20011;51.510;9.942;2024-03-25T13:12:06;10.70;99.90
33673;DHT22;20011;51.510;9.942;2024-03-25T13:14:32;10.70;99.90
33673;DHT22;20011;51.510;9.942;2024-03-25T13:16:58;10.80;99.90
33673;DHT22;20011;51.510;9.942;2024-03-25T13:19:24;10.80;99.90
33673;DHT22;20011;51.510;9.942;2024-03-25T13:21:55;10.80;99.90
33673;DHT22;20011;51.510;9.942;2024-03-25T13:24:21;10.90;98.90
33673;DHT22;20011;51.510;9.942;2024-03-25T13:26:47;10.90;98.40
33673;DHT22;20011;51.510;9.942;2024-03-25T13:29:13;10.90;97.00
33673;DHT22;20011;51.510;9.942;2024-03-25T13:31:39;10.90;96.70
33673;DHT22;20011;51.510;9.942;2024-03-25T13:34:05;10.90;96.70
33673;DHT22;20011;51.510;9.942;2024-03-25T13:36:31;11.00;96.20
33673;DHT22;20011;51.510;9.942;2024-03-25T13:38:57;10.90;96.30
33673;DHT22;20011;51.510;9.942;2024-03-25T13:41:23;11.00;97.30
33673;DHT22;20011;51.510;9.942;2024-03-25T13:43:50;11.00;98.80
33673;DHT22;20011;51.510;9.942;2024-03-25T13:46:16;10.90;99.70
33673;DHT22;20011;51.510;9.942;2024-03-25T13:48:42;11.00;99.30
33673;DHT22;20011;51.510;9.942;2024-03-25T13:51:10;11.00;99.70
33673;DHT22;20011;51.510;9.942;2024-03-25T13:53:36;11.00;99.90
33673;DHT22;20011;51.510;9.942;2024-03-25T13:56:02;11.00;99.90
33673;DHT22;20011;51.510;9.942;2024-03-25T13:58:28;11.10;99.90
33673;DHT22;20011;51.510;9.942;2024-03-25T14:00:54;11.00;99.00
33673;DHT22;20011;51.510;9.942;2024-03-25T14:03:21;11.00;97.80
33673;DHT22;20011;51.510;9.942;2024-03-25T14:05:47;11.00;97.00
33673;DHT22;20011;51.510;9.942;2024-03-25T14:08:13;11.00;95.90
33673;DHT22;20011;51.510;9.942;2024-03-25T14:10:39;10.90;94.90
33673;DHT22;20011;51.510;9.942;2024-03-25T14:13:05;11.00;95.70
33673;DHT22;20011;51.510;9.942;2024-03-25T14:15:33;10.90;95.50
33673;DHT22;20011;51.510;9.942;2024-03-25T14:17:59;10.90;96.40
33673;DHT22;20011;51.510;9.942;2024-03-25T14:20:25;10.90;96.10
33673;DHT22;20011;51.510;9.942;2024-03-25T14:22:51;11.00;95.90
33673;DHT22;20011;51.510;9.942;2024-03-25T14:25:17;10.90;93.70
33673;DHT22;20011;51.510;9.942;2024-03-25T14:27:43;10.90;92.20
33673;DHT22;20011;51.510;9.942;2024-03-25T14:30:09;10.90;91.80
33673;DHT22;20011;51.510;9.942;2024-03-25T14:32:40;10.90;91.40
33673;DHT22;20011;51.510;9.942;2024-03-25T14:35:06;10.90;94.20
33673;DHT22;20011;51.510;9.942;2024-03-25T14:37:33;10.90;94.60
33673;DHT22;20011;51.510;9.942;2024-03-25T14:39:59;11.00;94.10
33673;DHT22;20011;51.510;9.942;2024-03-25T14:42:25;11.00;95.30
33673;DHT22;20011;51.510;9.942;2024-03-25T14:44:51;11.00;94.60
33673;DHT22;20011;51.510;9.942;2024-03-25T14:47:17;11.00;95.80
33673;DHT22;20011;51.510;9.942;2024-03-25T14:49:46;11.00;94.90
33673;DHT22;20011;51.510;9.942;2024-03-25T14:52:12;11.00;94.60
33673;DHT22;20011;51.510;9.942;2024-03-25T14:54:38;11.10;94.80
33673;DHT22;20011;51.510;9.942;2024-03-25T14:57:04;11.00;94.90
33673;DHT22;20011;51.510;9.942;2024-03-25T14:59:30;11.10;94.00
33673;DHT22;20011;51.510;9.942;2024-03-25T15:02:00;11.00;93.50
33673;DHT22;20011;51.510;9.942;2024-03-25T15:04:29;11.00;91.80
33673;DHT22;20011;51.510;9.942;2024-03-25T15:06:56;11.00;91.90
33673;DHT22;20011;51.510;9.942;2024-03-25T15:09:22;11.00;92.30
33673;DHT22;20011;51.510;9.942;2024-03-25T15:11:48;11.00;91.50
33673;DHT22;20011;51.510;9.942;2024-03-25T15:14:14;10.90;92.40
33673;DHT22;20011;51.510;9.942;2024-03-25T15:16:40;10.90;93.60
33673;DHT22;20011;51.510;9.942;2024-03-25T15:19:06;11.00;93.40
33673;DHT22;20011;51.510;9.942;2024-03-25T15:21:35;11.00;93.10
33673;DHT22;20011;51.510;9.942;2024-03-25T15:24:02;10.90;94.20
33673;DHT22;20011;51.510;9.942;2024-03-25T15:26:28;10.90;93.80
33673;DHT22;20011;51.510;9.942;2024-03-25T15:28:54;10.90;93.60
33673;DHT22;20011;51.510;9.942;2024-03-25T15:31:20;10.80;93.70
33673;DHT22;20011;51.510;9.942;2024-03-25T15:33:46;10.80;93.30
33673;DHT22;20011;51.510;9.942;2024-03-25T15:36:12;10.80;91.80
33673;DHT22;20011;51.510;9.942;2024-03-25T15:38:38;10.90;91.40
33673;DHT22;20011;51.510;9.942;2024-03-25T15:41:04;10.70;91.50
33673;DHT22;20011;51.510;9.942;2024-03-25T15:43:30;10.80;91.80